createdAt,value
2023-03-06T00:00:53.904Z,63.42
2023-03-06T00:03:23.244Z,69.53
2023-03-06T00:05:51.827Z,69.08
2023-03-06T00:08:20.052Z,67.06
2023-03-06T00:10:48.221Z,64.98
2023-03-06T00:13:19.137Z,63.40
2023-03-06T00:15:48.715Z,62.06
2023-03-06T00:18:17.141Z,58.04
2023-03-06T00:20:45.517Z,54.52
2023-03-06T00:23:13.743Z,54.42
2023-03-06T00:25:45.956Z,55.65
2023-03-06T00:28:15.958Z,57.38
2023-03-06T00:30:46.246Z,58.55
2023-03-06T00:33:14.466Z,62.88
2023-03-06T00:35:42.757Z,68.48
2023-03-06T00:38:13.534Z,67.48
2023-03-06T00:40:41.748Z,66.91
2023-03-06T00:43:10.327Z,66.12
2023-03-06T00:45:38.657Z,64.50
2023-03-06T00:48:06.980Z,63.21
2023-03-06T00:50:35.768Z,62.16
2023-03-06T00:53:03.951Z,61.50
2023-03-06T00:55:33.709Z,57.94
2023-03-06T00:58:02.133Z,54.58
2023-03-06T01:00:30.713Z,54.42
2023-03-06T01:02:58.884Z,55.45
2023-03-06T01:05:27.307Z,56.33
2023-03-06T01:07:55.732Z,57.54
2023-03-06T01:10:24.010Z,58.93
2023-03-06T01:12:52.286Z,63.19
2023-03-06T01:15:21.376Z,68.02
2023-03-06T01:17:53.849Z,68.74
2023-03-06T01:20:22.337Z,67.46
2023-03-06T01:22:51.218Z,65.79
2023-03-06T01:25:19.491Z,64.23
2023-03-06T01:27:47.778Z,62.54
2023-03-06T01:30:16.447Z,58.98
2023-03-06T01:32:44.724Z,55.12
2023-03-06T01:35:13.306Z,55.01
2023-03-06T01:37:41.590Z,55.67
2023-03-06T01:40:11.798Z,56.83
2023-03-06T01:42:40.594Z,58.08
2023-03-06T01:45:35.005Z,59.26
2023-03-06T01:48:03.257Z,64.22
2023-03-06T01:50:31.732Z,68.00
2023-03-06T01:53:01.135Z,67.92
2023-03-06T01:55:33.397Z,66.84
2023-03-06T01:58:09.133Z,65.96
2023-03-06T02:00:38.254Z,65.47
2023-03-06T02:03:11.808Z,64.57
2023-03-06T02:05:42.167Z,63.29
2023-03-06T02:08:17.076Z,62.36
2023-03-06T02:11:14.915Z,61.40
2023-03-06T02:13:44.471Z,57.11
2023-03-06T02:16:14.998Z,54.60
2023-03-06T02:18:44.817Z,54.94
2023-03-06T02:21:20.458Z,56.15
2023-03-06T02:24:00.609Z,57.01
2023-03-06T02:26:29.794Z,58.12
2023-03-06T02:28:59.410Z,62.47
2023-03-06T02:31:31.632Z,66.81
2023-03-06T02:34:04.258Z,67.02
2023-03-06T02:36:35.926Z,66.37
2023-03-06T02:39:04.392Z,65.63
2023-03-06T02:41:32.895Z,64.77
2023-03-06T02:44:01.148Z,64.18
2023-03-06T02:46:30.724Z,63.52
2023-03-06T02:48:59.023Z,63.15
2023-03-06T02:51:27.297Z,64.21
2023-03-06T02:53:55.465Z,62.07
2023-03-06T02:56:23.640Z,60.49
2023-03-06T02:58:52.323Z,60.10
2023-03-06T03:01:21.425Z,58.21
2023-03-06T03:03:49.800Z,56.15
2023-03-06T03:06:18.169Z,56.51
2023-03-06T03:08:46.852Z,58.18
2023-03-06T03:11:15.433Z,61.52
2023-03-06T03:13:45.141Z,64.86
2023-03-06T03:16:18.096Z,65.23
2023-03-06T03:18:48.237Z,65.01
2023-03-06T03:21:18.365Z,64.98
2023-03-06T03:23:48.401Z,64.21
2023-03-06T03:26:20.214Z,66.55
2023-03-06T03:28:59.676Z,65.65
2023-03-06T03:31:28.510Z,64.41
2023-03-06T03:33:57.045Z,64.59
2023-03-06T03:36:26.241Z,65.44
2023-03-06T03:38:55.748Z,64.20
2023-03-06T03:41:24.441Z,62.73
2023-03-06T03:43:52.815Z,61.40
2023-03-06T03:46:21.843Z,58.14
2023-03-06T03:48:51.101Z,55.27
2023-03-06T03:51:19.582Z,56.10
2023-03-06T03:53:50.718Z,57.43
2023-03-06T03:56:21.043Z,59.45
2023-03-06T03:59:09.385Z,63.92
2023-03-06T04:01:43.127Z,68.49
2023-03-06T04:04:11.574Z,68.13
2023-03-06T04:06:40.248Z,67.17
2023-03-06T04:09:08.829Z,66.38
2023-03-06T04:11:37.720Z,65.69
2023-03-06T04:14:08.457Z,64.51
2023-03-06T04:16:37.236Z,65.44
2023-03-06T04:19:05.623Z,64.85
2023-03-06T04:21:34.400Z,65.17
2023-03-06T04:24:02.573Z,63.55
2023-03-06T04:26:31.269Z,62.18
2023-03-06T04:29:00.149Z,62.20
2023-03-06T04:31:28.640Z,58.03
2023-03-06T04:33:57.273Z,55.07
2023-03-06T04:36:29.381Z,55.91
2023-03-06T04:39:00.975Z,56.97
2023-03-06T04:41:29.611Z,59.14
2023-03-06T04:43:57.789Z,63.84
2023-03-06T04:46:25.956Z,67.77
2023-03-06T04:48:54.133Z,68.61
2023-03-06T04:51:22.509Z,67.54
2023-03-06T04:53:50.679Z,66.44
2023-03-06T04:56:18.851Z,65.56
2023-03-06T04:58:47.027Z,64.60
2023-03-06T05:01:15.210Z,65.47
2023-03-06T05:03:43.377Z,65.63
2023-03-06T05:06:11.543Z,65.67
2023-03-06T05:08:40.230Z,65.01
2023-03-06T05:11:08.408Z,63.01
2023-03-06T05:13:36.872Z,62.76
2023-03-06T05:16:06.482Z,60.82
2023-03-06T05:18:35.379Z,57.85
2023-03-06T05:21:04.880Z,56.60
2023-03-06T05:23:35.706Z,59.54
2023-03-06T05:26:09.394Z,63.72
2023-03-06T05:28:38.095Z,67.45
2023-03-06T05:31:07.019Z,66.16
2023-03-06T05:33:36.279Z,65.59
2023-03-06T05:36:05.166Z,64.17
2023-03-06T05:38:33.337Z,63.32
2023-03-06T05:41:01.513Z,63.38
2023-03-06T05:43:29.900Z,62.77
2023-03-06T05:46:03.023Z,62.93
2023-03-06T05:48:31.882Z,62.65
2023-03-06T05:51:01.302Z,63.00
2023-03-06T05:53:30.469Z,60.43
2023-03-06T05:56:01.011Z,56.50
2023-03-06T05:58:29.778Z,55.98
2023-03-06T06:00:58.168Z,57.56
2023-03-06T06:03:26.645Z,60.85
2023-03-06T06:05:54.826Z,66.23
2023-03-06T06:08:22.980Z,68.43
2023-03-06T06:10:53.295Z,68.07
2023-03-06T06:13:21.684Z,65.97
2023-03-06T06:15:49.884Z,63.49
2023-03-06T06:18:18.252Z,61.65
2023-03-06T06:20:46.411Z,60.80
2023-03-06T06:23:14.569Z,58.71
2023-03-06T06:25:42.741Z,58.45
2023-03-06T06:28:12.549Z,59.37
2023-03-06T06:30:40.726Z,64.00
2023-03-06T06:33:09.209Z,68.18
2023-03-06T06:35:37.618Z,67.23
2023-03-06T06:38:05.890Z,62.80
2023-03-06T06:40:34.050Z,61.48
2023-03-06T06:43:02.253Z,61.36
2023-03-06T06:45:30.373Z,61.20
2023-03-06T06:47:58.783Z,62.11
2023-03-06T06:50:27.236Z,61.41
2023-03-06T06:52:55.608Z,58.37
2023-03-06T06:55:23.785Z,56.59
2023-03-06T06:57:51.955Z,57.96
2023-03-06T07:00:20.843Z,62.66
2023-03-06T07:02:49.531Z,66.12
2023-03-06T07:05:21.727Z,64.86
2023-03-06T07:07:51.498Z,63.31
2023-03-06T07:10:21.096Z,62.77
2023-03-06T07:12:49.483Z,60.43
2023-03-06T07:15:18.802Z,56.96
2023-03-06T07:17:49.815Z,56.43
2023-03-06T07:20:20.147Z,57.40
2023-03-06T07:22:51.636Z,63.58
2023-03-06T07:25:20.908Z,65.93
2023-03-06T07:27:53.918Z,64.07
2023-03-06T07:30:23.887Z,63.07
2023-03-06T07:32:54.134Z,61.32
2023-03-06T07:35:23.020Z,59.02
2023-03-06T07:37:52.097Z,57.29
2023-03-06T07:40:20.908Z,58.84
2023-03-06T07:42:49.272Z,63.10
2023-03-06T07:45:20.255Z,65.17
2023-03-06T07:47:52.779Z,63.88
2023-03-06T07:50:21.666Z,61.11
2023-03-06T07:52:50.670Z,58.40
2023-03-06T07:55:18.836Z,57.28
2023-03-06T07:57:50.698Z,58.79
2023-03-06T08:00:19.680Z,65.40
2023-03-06T08:02:49.658Z,66.21
2023-03-06T08:05:18.176Z,64.88
2023-03-06T08:07:46.453Z,62.69
2023-03-06T08:10:16.159Z,60.76
2023-03-06T08:12:44.566Z,57.01
2023-03-06T08:15:13.218Z,57.36
2023-03-06T08:17:41.476Z,58.65
2023-03-06T08:20:12.571Z,61.86
2023-03-06T08:22:41.133Z,66.70
2023-03-06T08:25:10.381Z,65.40
2023-03-06T08:27:38.591Z,63.42
2023-03-06T08:30:08.267Z,60.92
2023-03-06T08:32:37.348Z,57.24
2023-03-06T08:35:06.281Z,56.21
2023-03-06T08:37:34.470Z,58.16
2023-03-06T08:40:04.838Z,60.39
2023-03-06T08:42:33.463Z,63.91
2023-03-06T08:45:01.624Z,66.73
2023-03-06T08:47:29.794Z,63.79
2023-03-06T08:50:00.573Z,60.41
2023-03-06T08:52:29.126Z,56.73
2023-03-06T08:54:58.222Z,55.75
2023-03-06T08:57:26.598Z,58.05
2023-03-06T08:59:55.060Z,59.48
2023-03-06T09:02:23.197Z,63.19
2023-03-06T09:04:51.745Z,65.75
2023-03-06T09:07:19.890Z,64.13
2023-03-06T09:09:48.065Z,58.89
2023-03-06T09:12:16.537Z,55.33
2023-03-06T09:14:44.720Z,57.18
2023-03-06T09:17:13.085Z,59.22
2023-03-06T09:19:41.259Z,60.39
2023-03-06T09:22:09.427Z,63.53
2023-03-06T09:24:37.603Z,64.99
2023-03-06T09:27:05.775Z,61.07
2023-03-06T09:29:34.053Z,56.16
2023-03-06T09:32:02.287Z,55.49
2023-03-06T09:34:30.601Z,56.19
2023-03-06T09:36:59.078Z,58.81
2023-03-06T09:39:27.484Z,58.84
2023-03-06T09:41:57.555Z,59.34
2023-03-06T09:44:28.305Z,62.62
2023-03-06T09:47:08.563Z,63.95
2023-03-06T09:49:36.733Z,56.97
2023-03-06T09:52:23.334Z,55.15
2023-03-06T09:55:11.654Z,56.48
2023-03-06T09:58:20.912Z,56.48
2023-03-06T10:01:04.232Z,56.65
2023-03-06T10:03:39.696Z,59.30
2023-03-06T10:06:34.178Z,59.38
2023-03-06T10:09:02.249Z,62.38
2023-03-06T10:11:39.608Z,62.84
2023-03-06T10:14:16.808Z,57.08
2023-03-06T10:16:44.986Z,54.21
2023-03-06T10:19:20.738Z,54.57
2023-03-06T10:21:54.746Z,56.10
2023-03-06T10:24:29.061Z,57.11
2023-03-06T10:27:29.495Z,57.64
2023-03-06T10:30:16.202Z,58.30
2023-03-06T10:32:55.400Z,59.60
2023-03-06T10:35:53.525Z,58.41
2023-03-06T10:38:32.019Z,58.59
2023-03-06T10:41:07.032Z,59.42
2023-03-06T10:43:36.704Z,58.18
2023-03-06T10:46:07.019Z,59.06
2023-03-06T10:48:36.493Z,58.28
2023-03-06T10:51:23.709Z,59.05
2023-03-06T10:54:00.894Z,58.58
2023-03-06T10:56:35.507Z,59.70
2023-03-06T10:59:17.413Z,59.82
2023-03-06T11:01:50.557Z,59.50
2023-03-06T11:04:27.825Z,60.06
2023-03-06T11:07:06.399Z,59.14
2023-03-06T11:09:35.690Z,58.30
2023-03-06T11:12:20.971Z,57.67
2023-03-06T11:15:10.237Z,57.95
2023-03-06T11:18:00.319Z,58.55
2023-03-06T11:20:54.505Z,58.15
2023-03-06T11:23:42.494Z,58.42
2023-03-06T11:26:16.579Z,58.90
2023-03-06T11:28:54.880Z,58.28
2023-03-06T11:31:25.916Z,58.47
2023-03-06T11:34:00.629Z,58.57
2023-03-06T11:36:41.586Z,59.08
2023-03-06T11:39:41.705Z,59.10
2023-03-06T11:42:23.908Z,59.09
2023-03-06T11:45:13.994Z,59.72
2023-03-06T11:48:13.198Z,59.55
2023-03-06T11:50:54.164Z,59.09
2023-03-06T11:53:49.064Z,58.85
2023-03-06T11:56:20.316Z,58.39
2023-03-06T11:59:07.945Z,58.06
2023-03-06T12:02:11.604Z,58.08
2023-03-06T12:04:48.215Z,57.77
2023-03-06T12:07:58.269Z,58.46
2023-03-06T12:10:42.311Z,59.12
2023-03-06T12:13:19.596Z,59.02
2023-03-06T12:16:24.621Z,57.88
2023-03-06T12:19:11.440Z,57.83
2023-03-06T12:21:51.901Z,57.58
2023-03-06T12:24:32.987Z,58.02
2023-03-06T12:27:04.325Z,57.50
2023-03-06T12:29:42.120Z,57.30
2023-03-06T12:32:21.592Z,57.16
2023-03-06T12:34:49.830Z,57.04
2023-03-06T12:37:34.391Z,57.14
2023-03-06T12:40:07.065Z,56.67
2023-03-06T12:43:02.272Z,56.41
2023-03-06T12:45:32.907Z,56.63
2023-03-06T12:48:02.203Z,56.92
2023-03-06T12:50:37.250Z,58.10
2023-03-06T12:53:14.520Z,59.37
2023-03-06T12:55:45.392Z,60.40
2023-03-06T12:58:29.211Z,65.44
2023-03-06T13:01:04.295Z,70.58
2023-03-06T13:03:48.067Z,63.39
2023-03-06T13:06:39.234Z,58.04
2023-03-06T13:09:32.131Z,55.36
2023-03-06T13:12:13.720Z,56.05
2023-03-06T13:14:48.690Z,57.06
2023-03-06T13:17:32.801Z,58.18
2023-03-06T13:20:16.536Z,59.67
2023-03-06T13:22:47.181Z,61.49
2023-03-06T13:25:21.476Z,66.35
2023-03-06T13:27:52.521Z,70.72
2023-03-06T13:30:39.079Z,70.28
2023-03-06T13:33:22.758Z,69.26
2023-03-06T13:36:19.821Z,67.24
2023-03-06T13:38:51.625Z,64.58
2023-03-06T13:41:23.112Z,56.19
2023-03-06T13:43:56.079Z,51.66
2023-03-06T13:46:28.241Z,51.92
2023-03-06T13:49:21.109Z,52.55
2023-03-06T13:52:23.280Z,52.25
2023-03-06T13:54:54.114Z,52.49
2023-03-06T13:57:42.054Z,54.17
2023-03-06T14:00:29.061Z,53.34
2023-03-06T14:03:35.839Z,54.35
2023-03-06T14:06:36.192Z,55.69
2023-03-06T14:09:06.681Z,55.47
2023-03-06T14:11:35.782Z,55.56
2023-03-06T14:14:04.064Z,55.74
2023-03-06T14:16:49.224Z,56.74
2023-03-06T14:19:19.406Z,56.58
2023-03-06T14:21:56.340Z,56.59
2023-03-06T14:24:38.728Z,57.03
2023-03-06T14:27:07.412Z,57.01
2023-03-06T14:29:35.488Z,57.04
2023-03-06T14:32:06.173Z,56.99
2023-03-06T14:34:40.035Z,57.78
2023-03-06T14:37:20.383Z,57.10
2023-03-06T14:39:49.374Z,57.73
2023-03-06T14:42:19.504Z,57.46
2023-03-06T14:44:49.188Z,57.85
2023-03-06T14:47:28.767Z,57.75
2023-03-06T14:50:25.587Z,57.42
2023-03-06T14:53:21.504Z,57.60
2023-03-06T14:56:01.531Z,58.27
2023-03-06T14:58:40.456Z,58.74
2023-03-06T15:01:10.190Z,58.98
2023-03-06T15:03:50.551Z,59.48
2023-03-06T15:06:22.205Z,59.55
2023-03-06T15:09:05.885Z,60.21
2023-03-06T15:11:51.934Z,60.07
2023-03-06T15:14:41.196Z,60.03
2023-03-06T15:17:21.344Z,60.70
2023-03-06T15:19:52.341Z,61.12
2023-03-06T15:22:39.089Z,61.80
2023-03-06T15:25:10.231Z,64.68
2023-03-06T15:27:38.610Z,66.32
2023-03-06T15:30:29.414Z,64.05
2023-03-06T15:33:20.138Z,60.66
2023-03-06T15:36:06.218Z,57.55
2023-03-06T15:38:38.622Z,60.18
2023-03-06T15:41:19.033Z,64.37
2023-03-06T15:43:47.207Z,68.56
2023-03-06T15:46:15.398Z,68.38
2023-03-06T15:49:00.281Z,67.30
2023-03-06T15:51:30.695Z,66.56
2023-03-06T15:54:11.214Z,67.11
2023-03-06T15:56:42.350Z,66.78
2023-03-06T15:59:22.430Z,63.82
2023-03-06T16:01:51.213Z,62.02
2023-03-06T16:04:20.063Z,59.41
2023-03-06T16:06:48.276Z,56.56
2023-03-06T16:09:16.446Z,56.37
2023-03-06T16:11:45.056Z,57.42
2023-03-06T16:14:21.197Z,58.99
2023-03-06T16:16:50.854Z,62.21
2023-03-06T16:19:29.253Z,68.62
2023-03-06T16:21:57.484Z,69.87
2023-03-06T16:24:26.776Z,67.51
2023-03-06T16:26:55.565Z,65.74
2023-03-06T16:29:25.794Z,64.47
2023-03-06T16:31:56.636Z,63.54
2023-03-06T16:34:25.426Z,59.59
2023-03-06T16:36:53.699Z,55.82
2023-03-06T16:39:23.300Z,55.88
2023-03-06T16:41:52.260Z,56.81
2023-03-06T16:44:21.465Z,59.31
2023-03-06T16:46:50.356Z,62.99
2023-03-06T16:49:22.582Z,68.91
2023-03-06T16:51:52.651Z,68.09
2023-03-06T16:54:23.475Z,66.12
2023-03-06T16:56:51.965Z,64.49
2023-03-06T16:59:20.126Z,59.56
2023-03-06T17:01:48.446Z,55.54
2023-03-06T17:04:16.677Z,55.91
2023-03-06T17:06:44.751Z,57.21
2023-03-06T17:09:14.469Z,58.87
2023-03-06T17:11:46.869Z,62.64
2023-03-06T17:14:15.206Z,67.49
2023-03-06T17:16:43.702Z,68.56
2023-03-06T17:19:14.595Z,67.90
2023-03-06T17:21:44.021Z,66.92
2023-03-06T17:24:12.196Z,65.07
2023-03-06T17:26:40.478Z,63.33
2023-03-06T17:29:09.668Z,62.12
2023-03-06T17:31:37.939Z,58.07
2023-03-06T17:34:06.418Z,54.41
2023-03-06T17:36:34.733Z,54.98
2023-03-06T17:39:03.181Z,56.01
2023-03-06T17:41:33.040Z,57.24
2023-03-06T17:44:02.080Z,58.79
2023-03-06T17:46:32.494Z,64.52
2023-03-06T17:49:00.885Z,69.68
2023-03-06T17:51:29.500Z,69.13
2023-03-06T17:53:57.657Z,67.78
2023-03-06T17:56:26.526Z,66.19
2023-03-06T17:58:55.520Z,64.32
2023-03-06T18:01:30.073Z,62.67
2023-03-06T18:03:58.208Z,58.61
2023-03-06T18:06:27.915Z,55.28
2023-03-06T18:08:56.291Z,55.67
2023-03-06T18:11:24.464Z,56.64
2023-03-06T18:13:53.040Z,58.21
2023-03-06T18:16:23.939Z,63.98
2023-03-06T18:18:53.584Z,69.24
2023-03-06T18:21:23.401Z,67.93
2023-03-06T18:23:51.568Z,66.24
2023-03-06T18:26:29.367Z,65.06
2023-03-06T18:29:01.495Z,62.69
2023-03-06T18:31:35.056Z,58.30
2023-03-06T18:34:06.654Z,54.78
2023-03-06T18:36:35.781Z,55.10
2023-03-06T18:39:06.338Z,56.07
2023-03-06T18:41:34.998Z,57.41
2023-03-06T18:44:03.876Z,55.54
2023-03-06T18:46:34.866Z,64.48
2023-03-06T18:49:04.018Z,70.51
2023-03-06T18:51:32.696Z,69.17
2023-03-06T18:54:02.204Z,66.09
2023-03-06T18:56:30.886Z,64.17
2023-03-06T18:59:04.175Z,58.98
2023-03-06T19:01:33.299Z,53.76
2023-03-06T19:04:03.282Z,54.23
2023-03-06T19:06:31.883Z,54.74
2023-03-06T19:09:01.877Z,56.17
2023-03-06T19:11:30.370Z,57.39
2023-03-06T19:13:59.631Z,59.05
2023-03-06T19:16:30.328Z,64.49
2023-03-06T19:18:59.301Z,70.80
2023-03-06T19:21:28.786Z,72.51
2023-03-06T19:23:58.806Z,68.09
2023-03-06T19:26:28.239Z,66.03
2023-03-06T19:28:56.626Z,63.26
2023-03-06T19:31:27.478Z,58.49
2023-03-06T19:33:57.063Z,54.10
2023-03-06T19:36:28.860Z,54.17
2023-03-06T19:38:59.060Z,54.77
2023-03-06T19:41:27.895Z,55.94
2023-03-06T19:43:59.026Z,57.08
2023-03-06T19:46:27.743Z,58.08
2023-03-06T19:48:57.942Z,64.64
2023-03-06T19:51:27.038Z,70.88
2023-03-06T19:53:56.341Z,69.43
2023-03-06T19:56:27.381Z,66.74
2023-03-06T19:58:55.958Z,64.45
2023-03-06T20:01:26.345Z,59.42
2023-03-06T20:04:05.185Z,54.51
2023-03-06T20:06:35.912Z,53.79
2023-03-06T20:09:07.392Z,54.61
2023-03-06T20:11:35.567Z,55.84
2023-03-06T20:14:05.363Z,57.31
2023-03-06T20:16:34.453Z,58.07
2023-03-06T20:19:02.873Z,63.27
2023-03-06T20:21:33.506Z,69.36
2023-03-06T20:24:01.528Z,69.28
2023-03-06T20:26:31.134Z,70.37
2023-03-06T20:28:59.410Z,66.35
2023-03-06T20:31:29.392Z,63.92
2023-03-06T20:33:59.244Z,58.68
2023-03-06T20:36:33.035Z,53.73
2023-03-06T20:39:02.855Z,53.37
2023-03-06T20:41:32.062Z,54.45
2023-03-06T20:44:02.142Z,55.54
2023-03-06T20:46:30.798Z,56.95
2023-03-06T20:48:59.716Z,58.57
2023-03-06T20:51:33.481Z,63.95
2023-03-06T20:54:02.434Z,70.98
2023-03-06T20:56:33.175Z,69.25
2023-03-06T20:59:01.335Z,67.14
2023-03-06T21:01:31.996Z,67.87
2023-03-06T21:04:00.839Z,63.19
2023-03-06T21:06:29.132Z,57.71
2023-03-06T21:08:58.530Z,53.24
2023-03-06T21:11:27.212Z,52.97
2023-03-06T21:13:56.113Z,53.71
2023-03-06T21:16:25.927Z,54.77
2023-03-06T21:18:55.414Z,55.80
2023-03-06T21:21:27.885Z,57.09
2023-03-06T21:23:56.167Z,58.34
2023-03-06T21:26:26.686Z,63.85
2023-03-06T21:28:57.226Z,70.80
2023-03-06T21:31:26.046Z,69.71
2023-03-06T21:33:54.797Z,66.86
2023-03-06T21:36:23.072Z,64.57
2023-03-06T21:38:52.468Z,59.51
2023-03-06T21:41:24.205Z,54.40
2023-03-06T21:43:59.554Z,53.70
2023-03-06T21:46:28.473Z,54.29
2023-03-06T21:48:58.063Z,55.62
2023-03-06T21:51:27.258Z,56.85
2023-03-06T21:53:56.046Z,58.43
2023-03-06T21:56:25.665Z,62.98
2023-03-06T21:58:55.269Z,69.18
2023-03-06T22:01:25.969Z,69.04
2023-03-06T22:03:54.841Z,67.39
2023-03-06T22:06:26.021Z,65.60
2023-03-06T22:08:59.139Z,64.08
2023-03-06T22:11:31.455Z,62.57
2023-03-06T22:14:00.363Z,58.05
2023-03-06T22:16:28.694Z,54.33
2023-03-06T22:18:57.329Z,54.28
2023-03-06T22:21:25.711Z,55.27
2023-03-06T22:23:57.482Z,56.46
2023-03-06T22:26:29.730Z,57.67
2023-03-06T22:28:58.012Z,63.34
2023-03-06T22:31:28.997Z,68.83
2023-03-06T22:33:59.684Z,67.65
2023-03-06T22:36:30.573Z,65.37
2023-03-06T22:39:00.718Z,64.36
2023-03-06T22:41:29.116Z,63.34
2023-03-06T22:43:58.618Z,62.07
2023-03-06T22:46:27.706Z,57.82
2023-03-06T22:48:57.622Z,54.28
2023-03-06T22:51:27.335Z,54.28
2023-03-06T22:53:55.883Z,55.21
2023-03-06T22:56:24.896Z,56.28
2023-03-06T22:58:53.070Z,57.86
2023-03-06T23:01:23.570Z,63.15
2023-03-06T23:03:52.478Z,69.47
2023-03-06T23:06:26.385Z,71.61
2023-03-06T23:09:00.319Z,68.22
2023-03-06T23:11:29.497Z,65.55
2023-03-06T23:14:18.331Z,64.06
2023-03-06T23:17:05.155Z,58.43
2023-03-06T23:19:53.302Z,53.95
2023-03-06T23:22:40.309Z,54.01
2023-03-06T23:25:27.197Z,54.82
2023-03-06T23:27:56.018Z,57.06
2023-03-06T23:30:24.287Z,58.56
2023-03-06T23:32:52.458Z,64.50
2023-03-06T23:35:20.957Z,71.17
2023-03-06T23:37:49.106Z,69.40
2023-03-06T23:40:18.003Z,66.78
2023-03-06T23:42:46.171Z,64.41
2023-03-06T23:45:14.552Z,62.50
2023-03-06T23:47:42.719Z,57.64
2023-03-06T23:50:11.811Z,54.29
2023-03-06T23:52:40.496Z,55.49
2023-03-06T23:55:09.189Z,56.94
2023-03-06T23:57:37.355Z,58.98
